Time;durP1;ratioP1;P1;durP2;ratioP2;P2;SDS_P1;SDS_P2;PMS_P1;PMS_P2;Temp;Humidity;BMP_temperature;BMP_pressure;BME280_temperature;BME280_humidity;BME280_pressure;Samples;Min_cycle;Max_cycle;Signal;HPM_P1;HPM_P2
2021/12/17 00:07:12;;;;;;;19.23;11.50;;;5.30;99.90;;;5.57;69.61;99664.09;5007962;28;20239;-40
2021/12/17 00:09:42;;;;;;;17.67;11.57;;;5.40;99.90;;;5.57;69.78;99667.59;5009956;28;20224;-40
2021/12/17 00:12:14;;;;;;;18.97;10.97;;;5.40;99.90;;;5.59;70.29;99664.88;5007525;28;20103;-40
2021/12/17 00:14:48;;;;;;;18.50;11.60;;;5.40;99.90;;;5.61;69.93;99668.28;5008610;28;20072;-39
2021/12/17 00:17:23;;;;;;;19.02;11.73;;;5.40;99.90;;;5.61;70.41;99665.63;5007936;28;20259;-40
2021/12/17 00:53:23;;;;;;;17.60;11.17;;;5.40;99.90;;;5.68;70.21;99648.50;5006996;28;20237;-39
2021/12/17 00:55:52;;;;;;;19.47;11.60;;;5.40;99.90;;;5.65;70.05;99641.59;5006983;28;20072;-39
2021/12/17 00:58:20;;;;;;;17.60;11.50;;;5.40;99.90;;;5.68;70.54;99641.47;5004995;28;20060;-40
2021/12/17 01:00:49;;;;;;;18.33;10.67;;;5.40;99.90;;;5.66;70.23;99643.31;5007925;28;20045;-39
2021/12/17 01:03:17;;;;;;;21.57;11.70;;;5.40;99.90;;;5.65;69.92;99636.31;5006067;28;20063;-39
2021/12/17 01:05:45;;;;;;;20.00;12.07;;;5.40;99.90;;;5.63;69.72;99632.06;5021160;28;20053;-40
2021/12/17 01:08:13;;;;;;;20.13;12.17;;;5.30;99.90;;;5.63;70.80;99634.69;5006753;28;20344;-39
2021/12/17 01:10:50;;;;;;;18.40;12.43;;;5.30;99.90;;;5.60;70.30;99630.41;5022725;28;20045;-39
2021/12/17 01:13:42;;;;;;;21.57;11.90;;;5.30;99.90;;;5.58;70.58;99629.66;5006307;28;20058;-40
2021/12/17 01:16:51;;;;;;;17.87;11.87;;;5.20;99.90;;;5.60;70.57;99619.84;5005027;28;20069;-39
2021/12/17 01:20:16;;;;;;;21.30;12.77;;;5.30;99.90;;;5.61;70.26;99615.44;5009099;28;20057;-39
2021/12/17 01:25:50;;;;;;;18.47;11.27;;;5.30;99.90;;;5.65;70.34;99615.19;5006669;28;20140;-39
2021/12/17 01:35:29;;;;;;;18.15;11.55;;;5.50;99.90;;;5.73;70.31;99631.47;5009029;28;20068;-39
2021/12/17 01:43:11;;;;;;;20.43;12.60;;;5.50;99.90;;;5.78;70.10;99633.88;5010742;28;20049;-40
2021/12/17 01:45:42;;;;;;;20.77;12.13;;;5.50;99.90;;;5.79;70.65;99634.72;5009675;28;20045;-39
2021/12/17 01:48:18;;;;;;;19.37;11.67;;;5.60;99.90;;;5.81;70.27;99641.63;5024163;28;20053;-40
2021/12/17 02:01:40;;;;;;;20.47;12.33;;;5.70;99.90;;;5.91;70.42;99650.81;5009295;28;20054;-39
2021/12/17 02:04:08;;;;;;;21.77;13.23;;;5.70;99.90;;;5.90;70.05;99633.22;5010779;28;20228;-40
2021/12/17 02:06:38;;;;;;;21.67;12.40;;;5.70;99.90;;;5.89;70.53;99638.56;5009190;28;20041;-39
2021/12/17 02:09:24;;;;;;;18.20;12.33;;;5.60;99.90;;;5.90;70.39;99635.00;5024388;28;20466;-39
2021/12/17 02:29:03;;;;;;;22.13;15.17;;;5.40;99.90;;;5.72;70.76;99608.63;5008381;28;20061;-40
2021/12/17 02:31:33;;;;;;;18.93;12.23;;;5.40;99.90;;;5.72;70.90;99619.22;5009655;28;20061;-39
2021/12/17 02:34:20;;;;;;;21.77;12.20;;;5.40;99.90;;;5.70;70.09;99613.16;5008558;28;20053;-39
2021/12/17 02:36:50;;;;;;;22.27;13.40;;;5.40;99.90;;;5.72;70.96;99606.00;5008569;28;20064;-39
2021/12/17 02:47:32;;;;;;;20.47;14.40;;;5.60;99.90;;;5.84;71.03;99593.91;5008042;28;20256;-39
2021/12/17 02:50:00;;;;;;;22.53;14.97;;;5.60;99.90;;;5.88;70.41;99597.22;5007876;28;20058;-40
2021/12/17 02:52:30;;;;;;;23.47;15.67;;;5.70;99.90;;;5.87;70.65;99583.16;5008328;28;20062;-40
2021/12/17 02:54:59;;;;;;;21.47;13.93;;;5.70;99.90;;;5.87;70.93;99575.25;5010110;28;20068;-40
2021/12/17 02:57:27;;;;;;;21.63;13.23;;;5.60;99.90;;;5.89;70.56;99585.72;5009419;28;20093;-40
2021/12/17 02:59:56;;;;;;;26.20;15.40;;;5.60;99.90;;;5.90;71.23;99584.78;5008103;28;20245;-40
2021/12/17 03:02:27;;;;;;;24.13;14.47;;;5.60;99.90;;;5.92;71.26;99582.91;5023200;28;20408;-40
2021/12/17 03:04:55;;;;;;;23.90;14.23;;;5.70;99.90;;;5.95;70.48;99572.19;4991494;28;20065;-40
2021/12/17 03:07:23;;;;;;;20.07;13.90;;;5.70;99.90;;;5.97;70.35;99577.38;4991952;28;20236;-40
2021/12/17 03:10:14;;;;;;;20.27;13.67;;;5.70;99.90;;;5.98;70.96;99579.09;5009204;28;20068;-40
2021/12/17 03:12:47;;;;;;;21.40;14.73;;;5.80;99.90;;;5.99;70.39;99581.69;5008825;28;20062;-40
2021/12/17 03:26:02;;;;;;;17.17;12.00;;;5.70;99.90;;;5.97;70.42;99583.56;5007508;28;20065;-39
2021/12/17 03:28:32;;;;;;;26.43;15.23;;;5.70;99.90;;;5.98;70.99;99587.03;5007074;28;20052;-39
2021/12/17 03:31:02;;;;;;;23.57;15.63;;;5.70;99.90;;;5.97;70.92;99593.25;5023446;28;20045;-40
2021/12/17 03:33:35;;;;;;;18.17;13.23;;;5.70;99.90;;;5.94;70.38;99594.25;5023702;28;20061;-39
2021/12/17 03:36:04;;;;;;;19.20;12.57;;;5.70;99.90;;;5.94;70.52;99593.41;5008390;28;20057;-39
2021/12/17 03:38:32;;;;;;;23.60;13.20;;;5.70;99.90;;;5.90;70.72;99590.06;5023730;28;20461;-40
2021/12/17 03:41:16;;;;;;;19.73;13.13;;;5.60;99.90;;;5.88;70.16;99595.44;5007786;28;20243;-39
2021/12/17 03:43:54;;;;;;;17.53;11.97;;;5.60;99.90;;;5.86;70.46;99599.97;5007447;28;20058;-40
2021/12/17 03:46:27;;;;;;;18.07;13.13;;;5.60;99.90;;;5.84;70.28;99595.69;5024305;28;20061;-39
2021/12/17 03:48:55;;;;;;;20.20;12.23;;;5.60;99.90;;;5.81;70.60;99596.69;5007972;28;20125;-40
2021/12/17 03:51:24;;;;;;;28.67;16.90;;;5.60;99.90;;;5.82;70.38;99590.50;5009180;28;20638;-40
2021/12/17 03:53:56;;;;;;;24.90;16.13;;;5.60;99.90;;;5.83;70.51;99604.56;5006696;28;20073;-39
2021/12/17 03:56:27;;;;;;;27.00;15.80;;;5.60;99.90;;;5.83;70.16;99601.91;5005437;28;20482;-40
2021/12/17 03:58:57;;;;;;;25.53;14.47;;;5.60;99.90;;;5.85;70.48;99598.22;5007911;28;20348;-40
2021/12/17 04:01:27;;;;;;;20.27;13.03;;;5.60;99.90;;;5.86;70.99;99599.13;5007781;28;20381;-40
2021/12/17 04:03:55;;;;;;;28.03;13.40;;;5.60;99.90;;;5.87;70.39;99608.72;5008292;28;20041;-39
2021/12/17 04:06:27;;;;;;;20.77;11.90;;;5.60;99.90;;;5.88;70.56;99605.16;5022356;28;20065;-39
2021/12/17 04:09:19;;;;;;;21.60;13.23;;;5.60;99.90;;;5.87;70.46;99600.81;5006923;28;20469;-40
2021/12/17 04:12:00;;;;;;;19.07;11.90;;;5.60;99.90;;;5.84;70.80;99598.34;5007345;28;20064;-40
2021/12/17 04:14:48;;;;;;;19.17;12.63;;;5.50;99.90;;;5.84;70.79;99601.84;5007244;28;20061;-40
2021/12/17 04:17:23;;;;;;;20.20;12.33;;;5.50;99.90;;;5.82;70.70;99598.41;5006711;28;20412;-40
2021/12/17 04:19:51;;;;;;;21.63;14.13;;;5.50;99.90;;;5.84;70.22;99599.19;5022038;28;20057;-39
2021/12/17 04:22:19;;;;;;;24.13;13.67;;;5.60;99.90;;;5.86;70.43;99599.97;5008431;28;20060;-40
2021/12/17 04:24:47;;;;;;;27.17;18.63;;;5.60;99.90;;;5.89;70.63;99596.28;5022880;28;20366;-40
2021/12/17 04:27:15;;;;;;;25.50;19.03;;;5.60;99.90;;;5.90;70.16;99590.91;5006862;28;20038;-40
2021/12/17 04:29:43;;;;;;;27.30;16.33;;;5.60;99.90;;;5.91;70.73;99602.34;5023770;28;20064;-39
2021/12/17 04:32:13;;;;;;;23.13;13.83;;;5.70;99.90;;;5.88;70.82;99608.66;5006149;28;20386;-40
2021/12/17 04:34:42;;;;;;;18.90;12.23;;;5.70;99.90;;;5.87;71.13;99598.16;5006788;28;20249;-39
2021/12/17 04:37:10;;;;;;;21.53;12.60;;;5.60;99.90;;;5.86;70.46;99583.25;4990257;28;20344;-40
2021/12/17 04:39:46;;;;;;;19.57;12.03;;;5.50;99.90;;;5.85;70.58;99584.16;5022712;28;20444;-39
2021/12/17 04:42:22;;;;;;;22.73;13.03;;;5.50;99.90;;;5.86;70.86;99577.97;5022006;28;20052;-40
2021/12/17 04:44:55;;;;;;;19.93;12.17;;;5.50;99.90;;;5.84;70.60;99572.75;5006577;28;20057;-39
2021/12/17 04:58:36;;;;;;;23.93;14.60;;;5.60;99.90;;;5.90;70.68;99561.00;5006085;28;20061;-40
2021/12/17 05:01:11;;;;;;;23.20;15.53;;;5.70;99.90;;;5.92;71.29;99548.53;5006873;28;20061;-40
2021/12/17 05:03:42;;;;;;;28.87;17.80;;;5.70;99.90;;;5.97;71.31;99566.81;5022385;28;20076;-39
2021/12/17 05:06:16;;;;;;;23.50;16.33;;;5.70;99.90;;;5.97;70.71;99565.03;5005120;28;20378;-41
2021/12/17 05:08:57;;;;;;;22.10;13.23;;;5.80;99.90;;;6.00;71.12;99556.09;5020132;28;20350;-40
2021/12/17 05:18:13;;;;;;;21.87;12.90;;;5.80;99.90;;;6.03;70.94;99564.69;5005466;28;20058;-40
2021/12/17 05:19:52;;;;;;;18.07;11.23;;;5.80;99.90;;;6.05;70.71;99557.53;5005785;28;20064;-40
2021/12/17 05:22:21;;;;;;;16.73;10.67;;;5.80;99.90;;;6.04;70.93;99563.75;5021274;28;20072;-40
2021/12/17 05:24:48;;;;;;;18.10;11.30;;;5.70;99.90;;;6.02;70.47;99559.50;5021166;28;20088;-40
2021/12/17 05:27:18;;;;;;;15.10;10.10;;;5.70;99.90;;;6.01;71.20;99549.84;5004323;28;20058;-40
2021/12/17 05:29:56;;;;;;;16.77;11.23;;;5.70;99.90;;;6.02;71.09;99565.63;5005597;28;20268;-40
2021/12/17 05:32:24;;;;;;;15.77;11.13;;;5.80;99.90;;;6.05;70.78;99567.25;5006470;28;20053;-40
2021/12/17 05:34:57;;;;;;;19.03;11.40;;;5.80;99.90;;;6.06;70.61;99561.03;5005361;28;20056;-40
2021/12/17 05:37:25;;;;;;;13.83;9.70;;;5.80;99.90;;;6.07;70.66;99553.00;5004820;28;20052;-40
2021/12/17 05:39:54;;;;;;;15.10;10.13;;;5.80;99.90;;;6.08;70.99;99551.22;5005877;28;20056;-40
2021/12/17 05:42:23;;;;;;;17.33;10.30;;;5.80;99.90;;;6.06;70.38;99540.72;5021807;28;20054;-40
2021/12/17 05:45:10;;;;;;;15.17;10.27;;;5.80;99.90;;;6.08;70.65;99543.28;5006492;28;20058;-39
2021/12/17 05:47:38;;;;;;;13.70;10.20;;;5.90;99.90;;;6.09;70.66;99552.94;5004913;28;20062;-40
2021/12/17 05:50:07;;;;;;;13.73;8.70;;;5.90;99.90;;;6.11;70.63;99548.41;5006710;28;20046;-40
2021/12/17 05:52:35;;;;;;;13.43;8.97;;;5.90;99.90;;;6.14;71.33;99548.22;5021731;28;20064;-40
2021/12/17 05:55:03;;;;;;;13.00;9.50;;;5.90;99.90;;;6.15;70.55;99544.66;5005927;28;20054;-40
2021/12/17 05:57:31;;;;;;;12.93;8.67;;;5.90;99.90;;;6.14;71.27;99545.56;5021139;28;20263;-40
2021/12/17 05:59:59;;;;;;;15.07;9.80;;;5.90;99.90;;;6.13;70.99;99545.66;5005044;28;20362;-40
2021/12/17 06:02:29;;;;;;;14.63;10.33;;;5.80;99.90;;;6.10;70.83;99546.69;5020706;28;20052;-39
2021/12/17 06:04:59;;;;;;;17.27;11.87;;;5.80;99.90;;;6.07;70.67;99544.22;5005336;28;20390;-40
2021/12/17 06:07:28;;;;;;;14.00;9.33;;;5.70;99.90;;;6.06;70.93;99537.22;5005737;28;20269;-40
2021/12/17 06:10:03;;;;;;;18.67;11.87;;;5.80;99.90;;;6.05;71.10;99541.66;5005211;28;20058;-40
2021/12/17 06:12:39;;;;;;;29.13;18.27;;;5.70;99.90;;;6.02;71.02;99541.81;5004981;28;20046;-40
2021/12/17 06:15:15;;;;;;;24.53;17.27;;;5.70;99.90;;;6.04;71.05;99536.47;5021545;28;20056;-41
2021/12/17 06:17:45;;;;;;;21.33;14.60;;;5.70;99.90;;;6.04;70.69;99542.59;5005478;28;20056;-40
2021/12/17 06:20:15;;;;;;;27.20;17.30;;;5.70;99.90;;;6.05;71.42;99552.25;5025676;28;20065;-40
2021/12/17 06:22:47;;;;;;;44.63;29.23;;;5.80;99.90;;;6.07;71.18;99550.38;5009082;28;20068;-40
2021/12/17 06:25:16;;;;;;;28.13;17.97;;;5.80;99.90;;;6.11;70.93;99554.53;5024104;28;20056;-40
2021/12/17 06:27:45;;;;;;;22.57;15.23;;;5.90;99.90;;;6.13;71.44;99561.50;5009701;28;20255;-40
2021/12/17 06:30:16;;;;;;;19.07;13.37;;;5.90;99.90;;;6.14;70.65;99563.22;5025964;28;20054;-40
2021/12/17 06:32:44;;;;;;;20.60;13.47;;;5.90;99.90;;;6.14;71.13;99572.00;5024878;28;20062;-40
2021/12/17 06:35:15;;;;;;;17.67;10.97;;;5.90;99.90;;;6.17;71.34;99573.66;5007939;28;20378;-40
2021/12/17 06:37:44;;;;;;;16.10;10.37;;;5.90;99.90;;;6.18;71.20;99581.47;5007399;28;20053;-40
2021/12/17 06:40:19;;;;;;;25.97;17.37;;;6.00;99.90;;;6.20;70.91;99584.03;5009785;28;20062;-40
2021/12/17 06:42:48;;;;;;;26.10;17.67;;;6.00;99.90;;;6.19;71.21;99582.34;4993659;28;20057;-40
2021/12/17 06:45:35;;;;;;;19.87;13.43;;;5.90;99.90;;;6.19;71.19;99587.66;5024890;28;20255;-40
2021/12/17 06:48:04;;;;;;;26.40;15.77;;;6.00;99.90;;;6.20;71.06;99576.09;5008799;28;20054;-40
2021/12/17 06:59:54;;;;;;;21.03;13.93;;;5.90;99.90;;;6.16;71.21;99603.66;5017005;28;20054;-40
2021/12/17 07:05:58;;;;;;;24.03;12.60;;;5.80;99.90;;;6.12;71.00;99605.63;5014242;28;20462;-40
2021/12/17 07:33:21;;;;;;;18.90;12.70;;;5.70;99.90;;;5.97;70.91;99615.28;5007585;28;20267;-44
2021/12/17 07:36:13;;;;;;;24.80;11.73;;;5.70;99.90;;;5.99;71.07;99618.69;5006668;28;20348;-45
2021/12/17 07:41:36;;;;;;;19.57;11.47;;;5.60;99.90;;;6.02;70.96;99615.00;5007844;28;20068;-44
2021/12/17 07:44:22;;;;;;;20.57;12.87;;;5.70;99.90;;;6.03;71.30;99620.22;5007822;28;20284;-47
2021/12/17 07:47:08;;;;;;;19.13;11.00;;;5.80;99.90;;;6.02;71.22;99615.00;5006951;28;20080;-47
2021/12/17 07:49:36;;;;;;;21.90;13.00;;;5.70;99.90;;;5.98;70.88;99616.13;5007588;28;20083;-45
2021/12/17 07:52:05;;;;;;;18.27;12.13;;;5.60;99.90;;;5.96;70.31;99618.84;5006088;28;20076;-45
2021/12/17 07:54:34;;;;;;;19.30;10.37;;;5.60;99.90;;;5.94;70.84;99609.28;5007002;28;20045;-46
2021/12/17 07:57:02;;;;;;;19.63;11.60;;;5.60;99.90;;;5.90;70.71;99608.56;5023924;28;20062;-46
2021/12/17 07:59:39;;;;;;;15.77;10.87;;;5.50;99.90;;;5.87;70.79;99612.25;5007785;28;20057;-43
2021/12/17 08:02:08;;;;;;;15.97;11.23;;;5.50;99.90;;;5.87;70.66;99614.03;5007672;28;20053;-45
2021/12/17 08:04:43;;;;;;;15.20;10.80;;;5.50;99.90;;;5.86;69.97;99617.63;5007358;28;20054;-47
2021/12/17 08:07:13;;;;;;;15.10;10.27;;;5.50;99.90;;;5.82;70.50;99616.94;5008175;28;20068;-46
2021/12/17 08:09:43;;;;;;;16.60;11.17;;;5.40;99.90;;;5.78;70.75;99615.38;5004125;28;20058;-48
2021/12/17 08:12:11;;;;;;;17.33;10.43;;;5.40;99.90;;;5.79;70.15;99621.50;5023183;28;20046;-48
2021/12/17 08:14:49;;;;;;;15.77;9.93;;;5.50;99.90;;;5.77;70.75;99629.53;5006728;28;20057;-46
2021/12/17 08:17:41;;;;;;;12.17;8.47;;;5.50;99.90;;;5.77;70.47;99628.69;5022155;28;20050;-48
2021/12/17 08:28:39;;;;;;;11.47;8.03;;;5.40;99.90;;;5.72;70.48;99632.44;5005553;28;20418;-47
2021/12/17 08:31:07;;;;;;;13.10;8.30;;;5.40;99.90;;;5.71;70.07;99630.69;5023338;28;20045;-47
2021/12/17 08:33:37;;;;;;;14.47;9.73;;;5.40;99.90;;;5.71;69.89;99629.84;5022102;28;20053;-45
2021/12/17 08:36:05;;;;;;;14.43;9.63;;;5.30;99.90;;;5.70;70.71;99629.00;5007607;28;20236;-45
2021/12/17 08:38:36;;;;;;;11.87;8.70;;;5.40;99.90;;;5.70;69.93;99629.00;5006034;28;20049;-45
2021/12/17 08:41:26;;;;;;;13.90;8.87;;;5.40;99.90;;;5.72;70.52;99642.16;5022743;28;20058;-45
2021/12/17 08:43:55;;;;;;;13.20;8.13;;;5.40;99.90;;;5.70;69.93;99633.44;5005161;28;20053;-47
2021/12/17 08:46:24;;;;;;;13.33;9.20;;;5.40;99.90;;;5.71;70.67;99635.16;5007932;28;20076;-44
2021/12/17 08:48:55;;;;;;;11.03;8.37;;;5.40;99.90;;;5.75;70.47;99635.84;5014520;28;20052;-44
2021/12/17 08:51:33;;;;;;;14.80;8.97;;;5.40;99.90;;;5.74;70.39;99640.28;5037863;28;20100;-46
2021/12/17 08:54:04;;;;;;;12.77;8.83;;;5.40;99.90;;;5.76;70.48;99632.25;5036479;28;20157;-44
2021/12/17 08:56:42;;;;;;;12.33;8.20;;;5.50;99.90;;;5.77;70.73;99636.59;5026352;28;20058;-45
2021/12/17 08:59:14;;;;;;;15.00;8.43;;;5.50;99.90;;;5.76;70.25;99643.69;5011878;28;20279;-45
2021/12/17 09:02:14;;;;;;;13.73;8.80;;;5.40;99.90;;;5.75;69.88;99635.84;5038086;28;20061;-44
2021/12/17 09:04:57;;;;;;;11.83;7.77;;;5.40;99.90;;;5.79;70.26;99634.72;5033445;28;20373;-48
2021/12/17 09:07:25;;;;;;;11.07;7.80;;;5.50;99.90;;;5.81;70.57;99638.16;5034025;28;20057;-47
2021/12/17 09:10:08;;;;;;;10.73;7.33;;;5.50;99.90;;;5.82;70.18;99637.22;5036399;28;20049;-46
2021/12/17 09:12:37;;;;;;;12.17;8.53;;;5.50;99.90;;;5.83;70.04;99645.06;5033017;28;20348;-44
2021/12/17 09:15:06;;;;;;;12.93;8.17;;;5.60;99.90;;;5.87;69.85;99635.16;5035501;28;20053;-47
2021/12/17 09:18:09;;;;;;;12.00;8.03;;;5.60;99.90;;;5.90;69.90;99629.72;5032879;28;20045;-46
2021/12/17 09:20:48;;;;;;;12.27;7.27;;;5.70;99.90;;;5.90;70.52;99632.38;5043240;28;20410;-45
2021/12/17 09:23:18;;;;;;;14.27;8.17;;;5.60;99.90;;;5.94;70.35;99633.06;5026473;28;20053;-49
2021/12/17 09:25:53;;;;;;;10.70;7.27;;;5.70;99.90;;;5.94;70.01;99631.25;5024429;28;20375;-44
2021/12/17 09:28:24;;;;;;;9.97;8.07;;;5.70;99.90;;;5.98;69.66;99646.06;5024961;28;20049;-46
2021/12/17 09:30:59;;;;;;;10.53;6.40;;;5.70;99.90;;;5.98;69.77;99637.28;5027180;28;20113;-47
2021/12/17 09:33:27;;;;;;;12.47;8.20;;;5.70;99.90;;;5.99;69.57;99636.31;5026096;28;20050;-45
2021/12/17 09:35:55;;;;;;;11.13;7.07;;;5.70;99.90;;;6.02;70.17;99630.88;5025980;28;20079;-45
2021/12/17 09:38:23;;;;;;;12.17;7.57;;;5.70;99.90;;;6.04;69.80;99642.22;5025950;28;20068;-43
2021/12/17 09:40:51;;;;;;;12.17;7.17;;;5.80;99.90;;;6.05;69.35;99644.78;5026838;28;20053;-44
2021/12/17 09:43:19;;;;;;;11.13;8.17;;;5.80;99.90;;;6.07;69.84;99639.44;5026381;28;20377;-45
2021/12/17 09:45:46;;;;;;;13.53;7.90;;;5.80;99.90;;;6.09;70.02;99635.75;5026269;28;20404;-47
2021/12/17 09:48:14;;;;;;;14.00;8.57;;;5.90;99.90;;;6.11;70.05;99633.03;5025802;28;20057;-46
2021/12/17 09:50:43;;;;;;;13.40;8.20;;;5.90;99.90;;;6.15;69.09;99639.00;5027379;28;20041;-45
2021/12/17 09:53:11;;;;;;;15.40;10.30;;;5.90;99.90;;;6.16;69.90;99633.59;5027088;28;20057;-47
2021/12/17 09:55:39;;;;;;;22.87;14.33;;;5.90;99.90;;;6.18;69.24;99639.66;5030012;28;20049;-47
2021/12/17 09:58:07;;;;;;;17.30;10.63;;;5.90;99.90;;;6.19;69.45;99646.66;5029793;28;20037;-47
2021/12/17 10:00:34;;;;;;;14.10;10.37;;;6.00;99.90;;;6.22;69.78;99633.28;5030015;28;20359;-44
2021/12/17 10:03:08;;;;;;;12.70;9.33;;;6.00;99.90;;;6.26;69.99;99634.81;5030008;28;20373;-48
2021/12/17 10:05:39;;;;;;;11.60;8.48;;;6.10;99.90;;;6.27;69.50;99628.56;5028246;28;20065;-46
2021/12/17 10:08:19;;;;;;;16.10;9.13;;;6.00;99.90;;;6.29;69.18;99631.16;5030653;28;20083;-46
2021/12/17 10:11:01;;;;;;;12.43;8.97;;;6.10;99.90;;;6.30;69.19;99625.78;5030616;28;20244;-44
2021/12/17 10:13:34;;;;;;;14.23;8.37;;;6.10;99.90;;;6.32;69.77;99636.28;5029883;28;20245;-45
2021/12/17 10:16:12;;;;;;;11.50;8.97;;;6.10;99.90;;;6.34;69.30;99637.03;5029666;28;20050;-46
2021/12/17 10:18:46;;;;;;;9.87;7.80;;;6.20;99.90;;;6.36;69.01;99631.66;5029423;28;20053;-46
2021/12/17 10:21:21;;;;;;;12.83;8.17;;;6.20;99.90;;;6.36;69.37;99623.72;5030403;28;20064;-45
2021/12/17 10:23:52;;;;;;;13.17;7.93;;;6.10;99.90;;;6.34;69.01;99620.28;5029683;28;20049;-44
2021/12/17 10:26:22;;;;;;;11.23;8.23;;;6.10;99.90;;;6.34;69.04;99622.94;5029519;28;20057;-44
2021/12/17 10:28:59;;;;;;;12.63;8.27;;;6.10;99.90;;;6.35;69.62;99635.25;5028999;28;20046;-45
2021/12/17 10:31:29;;;;;;;12.57;9.17;;;6.10;99.90;;;6.29;69.32;99634.63;5029884;28;20060;-44
2021/12/17 10:34:01;;;;;;;14.67;9.67;;;6.10;99.90;;;6.29;69.21;99639.09;5028960;28;20049;-46
2021/12/17 10:36:41;;;;;;;10.40;8.17;;;6.10;99.90;;;6.33;69.38;99639.78;5028027;28;20062;-46
2021/12/17 10:39:30;;;;;;;10.63;7.80;;;6.20;99.90;;;6.39;69.34;99642.91;5030865;28;20057;-45
2021/12/17 10:41:59;;;;;;;12.03;7.73;;;6.30;99.90;;;6.47;69.32;99626.59;5029346;28;20051;-46
2021/12/17 10:44:27;;;;;;;12.77;8.00;;;6.40;99.90;;;6.54;69.41;99621.84;5030337;28;20065;-40
2021/12/17 10:47:29;;;;;;;12.00;8.20;;;6.50;99.90;;;6.62;69.23;99636.31;5028211;28;20045;-39
2021/12/17 10:49:59;;;;;;;9.53;7.53;;;6.60;99.90;;;6.62;68.62;99640.78;5029209;28;20053;-39
2021/12/17 10:52:39;;;;;;;12.23;7.77;;;6.60;99.90;;;6.53;68.62;99633.34;5030190;28;20075;-39
2021/12/17 10:55:15;;;;;;;12.70;9.00;;;6.50;99.90;;;6.48;68.96;99636.25;5029076;28;20050;-39
2021/12/17 10:57:44;;;;;;;13.90;10.93;;;6.30;99.90;;;6.44;68.44;99638.22;5029337;28;20049;-40
2021/12/17 11:00:12;;;;;;;16.27;9.10;;;6.30;99.90;;;6.44;69.10;99625.00;5028742;28;20068;-39
2021/12/17 11:02:51;;;;;;;11.57;8.63;;;6.40;99.90;;;6.45;69.14;99625.84;5029176;28;20061;-40
2021/12/17 11:05:21;;;;;;;12.47;8.83;;;6.40;99.90;;;6.47;68.76;99624.81;5029822;28;20046;-39
2021/12/17 11:07:51;;;;;;;12.60;8.10;;;6.40;99.90;;;6.50;68.51;99627.28;5029903;28;20072;-39
2021/12/17 11:10:31;;;;;;;12.10;7.93;;;6.50;99.90;;;6.55;68.95;99632.31;5027079;28;20041;-39
2021/12/17 11:12:59;;;;;;;10.17;7.47;;;6.50;99.90;;;6.53;68.42;99636.84;5029350;28;20221;-39
2021/12/17 11:15:30;;;;;;;10.07;7.70;;;6.50;99.90;;;6.56;68.94;99635.84;5027677;28;20057;-39
2021/12/17 11:18:03;;;;;;;8.87;6.93;;;6.60;99.90;;;6.55;68.09;99621.72;5028415;28;20067;-39
2021/12/17 11:20:39;;;;;;;8.65;6.05;;;6.50;99.90;;;6.60;69.02;99616.19;5029346;28;20075;-39
2021/12/17 11:23:13;;;;;;;10.87;6.93;;;6.50;99.90;;;6.64;68.72;99615.06;5028903;28;20083;-39
2021/12/17 11:25:53;;;;;;;11.05;6.72;;;6.50;99.90;;;6.69;68.63;99611.22;5027159;28;20057;-39
2021/12/17 11:28:23;;;;;;;12.27;6.77;;;6.60;99.90;;;6.72;68.51;99611.97;5029142;28;20049;-38
2021/12/17 11:30:51;;;;;;;9.13;6.47;;;6.60;99.90;;;6.76;68.00;99605.56;5028320;28;20045;-38
2021/12/17 11:33:19;;;;;;;9.50;5.87;;;6.80;99.90;;;6.80;68.54;99607.09;5028084;28;20045;-38
2021/12/17 11:35:49;;;;;;;9.50;6.40;;;6.80;99.90;;;6.83;68.63;99597.19;5027436;28;20048;-37
2021/12/17 11:38:28;;;;;;;12.70;6.23;;;6.80;99.90;;;6.87;68.43;99605.78;5027499;28;20048;-38
2021/12/17 11:41:10;;;;;;;10.00;6.07;;;6.80;99.90;;;6.90;68.62;99613.53;5027264;28;20053;-38
2021/12/17 11:43:59;;;;;;;10.13;7.07;;;6.80;99.90;;;6.90;67.69;99610.88;5027826;28;20057;-38
2021/12/17 11:46:32;;;;;;;9.17;5.63;;;6.80;99.90;;;6.88;67.91;99608.34;5026788;28;20045;-39
2021/12/17 11:49:03;;;;;;;10.48;6.57;;;6.80;99.90;;;6.87;67.22;99608.44;5027641;28;20053;-38
2021/12/17 11:51:36;;;;;;;11.03;6.67;;;6.80;99.90;;;6.89;68.14;99601.25;5027695;28;20050;-38
2021/12/17 11:54:32;;;;;;;11.17;6.60;;;6.80;99.90;;;6.88;67.23;99595.13;5027476;28;20057;-38
2021/12/17 11:57:10;;;;;;;8.20;5.17;;;6.90;99.90;;;6.94;68.29;99603.63;5027865;28;20044;-38
2021/12/17 11:59:45;;;;;;;8.47;5.73;;;6.90;99.90;;;6.96;67.35;99604.38;5028925;28;20056;-38
2021/12/17 12:02:22;;;;;;;9.73;6.03;;;6.90;99.90;;;7.01;68.18;99607.63;5027602;28;20061;-38
2021/12/17 12:04:57;;;;;;;11.00;7.17;;;7.00;99.90;;;7.03;67.81;99592.50;5027312;28;20055;-38
2021/12/17 12:07:25;;;;;;;9.57;6.23;;;7.10;99.90;;;7.05;67.77;99598.56;5027159;28;20363;-38
2021/12/17 12:10:08;;;;;;;10.63;7.43;;;7.10;99.90;;;7.08;67.44;99601.88;5027773;28;20053;-38
2021/12/17 12:12:42;;;;;;;11.02;8.10;;;7.10;99.90;;;7.11;68.24;99592.88;5027258;28;20053;-38
2021/12/17 12:15:24;;;;;;;14.68;8.90;;;7.10;99.90;;;7.19;67.93;99592.44;5027082;28;20045;-38
2021/12/17 12:17:58;;;;;;;11.77;7.63;;;7.20;99.90;;;7.25;68.38;99592.94;5027227;28;20389;-38
2021/12/17 12:20:55;;;;;;;16.73;9.90;;;7.30;99.90;;;7.27;67.68;99596.34;5028266;28;20061;-38
2021/12/17 12:23:25;;;;;;;11.80;8.43;;;7.40;99.70;;;7.22;67.50;99587.81;5028628;28;20063;-38
2021/12/17 12:26:03;;;;;;;11.53;8.23;;;7.20;99.70;;;7.22;67.40;99594.91;5027419;28;20060;-38
2021/12/17 12:28:58;;;;;;;12.83;8.47;;;7.10;99.60;;;7.16;67.66;99603.22;5026720;28;20047;-38
2021/12/17 12:31:34;;;;;;;12.63;7.73;;;7.10;99.50;;;7.15;67.79;99604.16;5027973;28;20236;-38
2021/12/17 12:36:51;;;;;;;11.73;7.97;;;7.10;99.90;;;7.14;67.19;99590.06;5027621;28;20053;-38
2021/12/17 12:39:47;;;;;;;10.27;8.07;;;7.10;99.90;;;7.12;67.60;99583.16;5027849;28;20079;-39
2021/12/17 12:42:22;;;;;;;12.23;8.23;;;7.00;99.90;;;7.09;67.88;99593.00;5026269;28;20049;-38
2021/12/17 12:45:12;;;;;;;11.30;7.20;;;7.00;99.90;;;7.17;67.39;99584.56;5027053;28;20238;-38
2021/12/17 12:47:48;;;;;;;10.00;6.57;;;7.20;99.90;;;7.27;67.58;99580.44;5027302;28;20220;-38
2021/12/17 12:50:20;;;;;;;10.27;7.50;;;7.30;99.90;;;7.39;67.98;99578.00;5027769;28;20102;-38
2021/12/17 12:52:56;;;;;;;11.83;8.33;;;7.40;99.90;;;7.46;67.88;99577.53;5027528;28;20045;-38
2021/12/17 12:55:34;;;;;;;11.77;8.07;;;7.60;99.90;;;7.61;68.13;99572.22;5027060;28;20435;-38
2021/12/17 12:58:11;;;;;;;13.60;9.23;;;7.70;99.90;;;7.64;68.14;99574.69;5027764;28;20060;-38
2021/12/17 13:00:53;;;;;;;11.97;8.87;;;7.70;99.90;;;7.63;67.67;99576.47;5027308;28;20057;-39
2021/12/17 13:03:37;;;;;;;12.27;8.87;;;7.70;99.90;;;7.62;67.66;99580.06;5026688;28;20045;-38
2021/12/17 13:06:06;;;;;;;12.20;8.35;;;7.70;99.60;;;7.58;67.64;99573.25;5026376;28;20270;-38
2021/12/17 13:08:35;;;;;;;13.00;9.53;;;7.60;99.90;;;7.48;67.61;99574.75;5026232;28;20072;-38
2021/12/17 13:11:06;;;;;;;16.53;10.47;;;7.50;99.90;;;7.44;67.56;99583.84;5027672;28;20053;-38
2021/12/17 13:14:03;;;;;;;16.33;11.87;;;7.40;99.90;;;7.45;68.05;99583.75;5008784;28;20061;-38
2021/12/17 13:21:48;;;;;;;15.03;11.43;;;7.50;99.90;;;7.44;67.68;99602.38;5005964;28;20064;-38
2021/12/17 13:24:24;;;;;;;18.47;10.50;;;7.40;99.90;;;7.45;67.79;99602.31;5007697;28;20177;-38
2021/12/17 13:27:09;;;;;;;12.68;9.02;;;7.40;99.90;;;7.47;67.91;99605.72;5007204;28;20080;-38
2021/12/17 13:29:43;;;;;;;13.90;10.00;;;7.40;99.90;;;7.51;68.31;99594.94;5013965;28;20056;-38
2021/12/17 13:32:17;;;;;;;16.23;11.07;;;7.50;99.90;;;7.53;68.08;99596.53;5012179;28;20229;-38
2021/12/17 13:34:52;;;;;;;17.17;10.38;;;7.50;99.90;;;7.58;67.77;99604.19;5013460;28;20050;-38
2021/12/17 13:37:22;;;;;;;14.27;10.00;;;7.60;99.90;;;7.58;67.72;99588.28;5012160;28;20370;-38
2021/12/17 13:40:11;;;;;;;17.43;10.73;;;7.60;99.90;;;7.51;67.63;99579.88;5014059;28;20053;-38
2021/12/17 13:42:42;;;;;;;12.00;9.00;;;7.50;99.90;;;7.48;67.44;99588.88;5013520;28;20061;-38
2021/12/17 13:45:13;;;;;;;13.77;9.43;;;7.40;99.90;;;7.45;67.39;99585.56;5012821;28;20057;-38
2021/12/17 13:47:48;;;;;;;12.53;9.03;;;7.30;99.90;;;7.36;67.57;99571.06;5012930;28;20381;-38